To NAV CANADA Home Page Login to a new session Search on AWWS site Feedback and Comments Disclaimer Vers la page française équivalente Tips FAQ What's new on the site To the Forecasts and Observations / NOTAM section To "File a Flight Plan" website Publications and other links Update of the User's profile FIC Telephone Numbers My Weather Data Folder Route Weather Data Regional Weather Data Local Weather Data To the Forecasts and Observations / NOTAM section
Request Generated 07/28/2015 at 15:19:23 UTC . Weather information available at that time is displayed.

METAR/TAF

KITCHENER/WATERLOO/ON    (show WxCam)

METAR CYKF 281500Z AUTO 27008KT 260V340 9SM CLR 28/15 A3006 RMK
SLP173 DENSITY ALT 2600FT=
METAR CYKF 281400Z AUTO 30003KT 230V340 9SM CLR 26/18 A3007 RMK
SLP177 DENSITY ALT 2400FT=
METAR CYKF 281300Z AUTO VRB03KT 9SM CLR 23/17 A3008 RMK SLP180
DENSITY ALT 2000FT=

TAF CYKF 281338Z 2814/2902 VRB03KT P6SM SKC
FM281800 36005KT P6SM FEW050
BECMG 2822/2824 VRB03KT
RMK FCST BASED ON AUTO OBS. NXT FCST BY 282000Z=
Your time UTC time
Weather data provided by Environment Canada and NAV CANADA